Time;durP1;ratioP1;P1;durP2;ratioP2;P2;SDS_P1;SDS_P2;PMS_P1;PMS_P2;Temp;Humidity;BMP_temperature;BMP_pressure;BME280_temperature;BME280_humidity;BME280_pressure;Samples;Min_cycle;Max_cycle;Signal;HPM_P1;HPM_P2
2023/12/06 00:01:41;;;;;;;0.70;0.70;;;20.70;54.90;;;;;;4988619;28;20466;-82
2023/12/06 00:04:09;;;;;;;0.80;0.80;;;20.70;54.80;;;;;;4992193;28;20482;-81
2023/12/06 00:06:38;;;;;;;0.70;0.60;;;20.70;55.10;;;;;;4991035;28;20534;-81
2023/12/06 00:09:06;;;;;;;0.80;0.70;;;20.70;55.00;;;;;;4992409;28;20557;-81
2023/12/06 00:11:34;;;;;;;0.80;0.80;;;20.70;54.90;;;;;;4989936;28;20466;-82
2023/12/06 00:14:04;;;;;;;0.80;0.80;;;20.70;55.40;;;;;;4987909;28;20466;-82
2023/12/06 00:16:32;;;;;;;0.83;0.83;;;20.60;55.10;;;;;;4994316;28;21343;-82
2023/12/06 00:19:01;;;;;;;0.63;0.60;;;20.60;55.00;;;;;;4990875;28;20469;-84
2023/12/06 00:21:30;;;;;;;0.70;0.70;;;20.60;55.10;;;;;;4993501;28;20489;-81
2023/12/06 00:23:58;;;;;;;1.03;0.70;;;20.60;55.40;;;;;;4983094;28;20993;-81
2023/12/06 00:26:26;;;;;;;1.47;0.97;;;20.60;55.40;;;;;;4991020;28;20458;-82
2023/12/06 00:28:55;;;;;;;1.20;1.03;;;20.60;55.20;;;;;;4991670;28;20984;-81
2023/12/06 00:31:24;;;;;;;0.53;0.53;;;20.60;55.30;;;;;;4990525;28;20461;-81
2023/12/06 00:33:53;;;;;;;1.43;0.70;;;20.60;55.30;;;;;;4991507;28;20484;-82
2023/12/06 00:36:21;;;;;;;0.70;0.67;;;20.60;55.20;;;;;;4991080;28;20470;-81
2023/12/06 00:38:49;;;;;;;0.80;0.80;;;20.60;55.30;;;;;;4989841;28;20858;-82
2023/12/06 00:41:18;;;;;;;0.60;0.57;;;20.60;55.30;;;;;;4988830;28;20805;-81
2023/12/06 00:43:47;;;;;;;0.83;0.60;;;20.60;55.40;;;;;;4991036;28;20458;-81
2023/12/06 00:46:15;;;;;;;0.60;0.60;;;20.60;55.40;;;;;;4987636;28;20819;-82
2023/12/06 00:48:45;;;;;;;0.87;0.80;;;20.60;55.50;;;;;;4989731;28;20489;-81
2023/12/06 00:51:13;;;;;;;0.80;0.50;;;20.60;55.20;;;;;;4990592;28;20546;-82
2023/12/06 00:53:42;;;;;;;1.80;0.63;;;20.60;55.30;;;;;;4990957;28;20959;-81
2023/12/06 00:56:13;;;;;;;0.63;0.63;;;20.60;55.50;;;;;;4990137;28;20466;-81
2023/12/06 00:58:43;;;;;;;1.17;1.00;;;20.60;55.10;;;;;;4990572;28;20458;-81
2023/12/06 01:01:12;;;;;;;1.93;0.77;;;20.60;55.10;;;;;;4989160;28;20864;-82
2023/12/06 01:03:42;;;;;;;1.63;0.63;;;20.60;55.30;;;;;;4989530;28;20495;-82
2023/12/06 01:06:11;;;;;;;0.77;0.77;;;20.60;55.30;;;;;;4990898;28;20464;-83
2023/12/06 01:08:40;;;;;;;0.70;0.70;;;20.60;55.40;;;;;;4990283;28;20450;-81
2023/12/06 01:11:08;;;;;;;0.60;0.60;;;20.60;55.10;;;;;;4989970;28;20457;-81
2023/12/06 01:13:36;;;;;;;1.10;0.67;;;20.50;55.40;;;;;;4991034;28;20470;-81
2023/12/06 01:16:06;;;;;;;0.50;0.50;;;20.50;55.40;;;;;;4986883;28;20490;-82
2023/12/06 01:18:34;;;;;;;0.70;0.60;;;20.50;55.40;;;;;;4990705;28;20462;-81
2023/12/06 01:21:03;;;;;;;0.57;0.40;;;20.60;55.40;;;;;;4989864;28;20470;-82
2023/12/06 01:23:32;;;;;;;0.50;0.50;;;20.60;55.40;;;;;;4989816;28;21009;-86
2023/12/06 01:26:01;;;;;;;0.87;0.70;;;20.60;55.40;;;;;;4991876;28;20454;-79
2023/12/06 01:28:30;;;;;;;0.90;0.90;;;20.60;55.20;;;;;;4989998;28;20552;-82
2023/12/06 01:30:58;;;;;;;0.50;0.50;;;20.60;55.30;;;;;;4983948;28;21021;-79
2023/12/06 01:33:27;;;;;;;0.60;0.57;;;20.60;55.30;;;;;;4986285;28;20455;-79
2023/12/06 01:35:56;;;;;;;0.80;0.80;;;20.60;55.40;;;;;;4987181;28;20545;-82
2023/12/06 01:38:24;;;;;;;0.50;0.50;;;20.60;55.40;;;;;;4989812;28;20481;-82
2023/12/06 01:40:54;;;;;;;1.60;0.80;;;20.50;55.30;;;;;;4989143;28;20489;-81
2023/12/06 01:43:22;;;;;;;0.70;0.63;;;20.50;55.40;;;;;;4990576;28;20454;-80
2023/12/06 01:45:51;;;;;;;0.50;0.50;;;20.50;55.40;;;;;;4986360;28;20861;-79
2023/12/06 01:48:21;;;;;;;0.70;0.63;;;20.50;55.40;;;;;;4989044;28;20482;-79
2023/12/06 01:50:51;;;;;;;0.40;0.40;;;20.50;55.40;;;;;;4992291;28;20470;-78
2023/12/06 01:53:20;;;;;;;1.23;0.57;;;20.50;55.40;;;;;;4986894;28;20465;-79
2023/12/06 01:55:48;;;;;;;0.43;0.43;;;20.50;55.40;;;;;;4991738;28;20453;-80
2023/12/06 01:58:18;;;;;;;0.63;0.63;;;20.50;55.40;;;;;;4992278;28;20495;-79
2023/12/06 02:00:46;;;;;;;0.60;0.60;;;20.50;55.40;;;;;;4991831;28;20508;-83
2023/12/06 02:03:16;;;;;;;1.60;0.93;;;20.50;55.40;;;;;;4993632;28;20486;-82
2023/12/06 02:05:45;;;;;;;0.77;0.67;;;20.50;55.30;;;;;;4994306;28;20844;-79
2023/12/06 02:08:14;;;;;;;1.23;0.60;;;20.50;55.40;;;;;;4993177;28;20912;-80
2023/12/06 02:10:42;;;;;;;0.50;0.50;;;20.50;55.40;;;;;;4993029;28;20458;-79
2023/12/06 02:13:10;;;;;;;0.63;0.60;;;20.50;55.50;;;;;;4991638;28;20462;-80
2023/12/06 02:15:40;;;;;;;0.60;0.60;;;20.50;55.40;;;;;;4992652;28;20455;-80
2023/12/06 02:18:09;;;;;;;0.77;0.60;;;20.40;55.50;;;;;;4992421;28;20573;-79
2023/12/06 02:20:37;;;;;;;1.00;0.60;;;20.40;55.50;;;;;;4991676;28;20461;-79
2023/12/06 02:23:08;;;;;;;0.47;0.47;;;20.40;55.50;;;;;;4993241;28;20469;-81
2023/12/06 02:25:38;;;;;;;0.63;0.40;;;20.40;55.50;;;;;;4993492;28;20438;-79
2023/12/06 02:28:06;;;;;;;0.57;0.57;;;20.40;55.60;;;;;;4992434;28;20459;-79
2023/12/06 02:30:34;;;;;;;0.70;0.70;;;20.40;55.60;;;;;;4993892;28;20489;-82
2023/12/06 02:33:03;;;;;;;0.60;0.50;;;20.40;55.60;;;;;;4990954;28;20474;-82
2023/12/06 02:35:34;;;;;;;0.80;0.80;;;20.40;55.60;;;;;;4994343;28;20525;-84
2023/12/06 02:38:04;;;;;;;0.70;0.70;;;20.40;55.40;;;;;;4992485;28;20482;-79
2023/12/06 02:40:33;;;;;;;2.70;0.70;;;20.30;55.60;;;;;;4992911;28;20451;-79
2023/12/06 02:43:03;;;;;;;0.70;0.70;;;20.30;55.60;;;;;;4991564;28;20545;-79
2023/12/06 02:45:32;;;;;;;0.67;0.67;;;20.30;55.40;;;;;;4993031;28;20457;-79
2023/12/06 02:48:00;;;;;;;1.10;1.00;;;20.30;55.50;;;;;;4991251;28;20544;-79
2023/12/06 02:50:28;;;;;;;0.60;0.47;;;20.30;55.40;;;;;;4992383;28;20460;-79
2023/12/06 02:52:57;;;;;;;0.47;0.47;;;20.30;55.70;;;;;;4992098;28;20972;-79
2023/12/06 02:55:25;;;;;;;0.50;0.50;;;20.30;55.70;;;;;;4991647;28;20476;-79
2023/12/06 02:57:53;;;;;;;0.43;0.43;;;20.30;55.70;;;;;;4993993;28;20483;-80
2023/12/06 03:00:23;;;;;;;0.60;0.60;;;20.30;55.70;;;;;;4991901;28;20611;-80
2023/12/06 03:02:52;;;;;;;0.60;0.60;;;20.30;55.70;;;;;;4992158;28;20494;-79
2023/12/06 03:05:20;;;;;;;0.40;0.40;;;20.30;55.80;;;;;;4992187;28;21127;-80
2023/12/06 03:07:48;;;;;;;0.40;0.40;;;20.20;55.80;;;;;;4991705;28;20882;-79
2023/12/06 03:10:17;;;;;;;0.50;0.50;;;20.20;55.80;;;;;;4992612;28;20474;-80
2023/12/06 03:12:45;;;;;;;0.87;0.50;;;20.20;55.80;;;;;;4992944;28;20954;-79
2023/12/06 03:15:13;;;;;;;0.63;0.57;;;20.20;55.80;;;;;;4993463;28;20458;-80
2023/12/06 03:17:43;;;;;;;0.50;0.50;;;20.20;55.70;;;;;;4990013;28;20561;-83
2023/12/06 03:20:12;;;;;;;0.40;0.40;;;20.20;55.80;;;;;;4992588;28;20453;-79
2023/12/06 03:22:40;;;;;;;0.33;0.33;;;20.20;55.70;;;;;;4990336;28;20970;-79
2023/12/06 03:25:09;;;;;;;0.40;0.40;;;20.20;55.80;;;;;;4993797;28;20447;-79
2023/12/06 03:27:37;;;;;;;1.07;0.50;;;20.20;55.80;;;;;;4992306;28;20454;-82
2023/12/06 03:30:07;;;;;;;0.50;0.50;;;20.20;55.80;;;;;;4988236;28;21106;-79
2023/12/06 03:32:38;;;;;;;0.40;0.40;;;20.20;55.80;;;;;;4982001;28;20512;-79
2023/12/06 03:35:09;;;;;;;0.60;0.50;;;20.20;55.70;;;;;;4986797;28;20562;-79
2023/12/06 03:37:37;;;;;;;0.70;0.70;;;20.20;55.80;;;;;;4992666;28;20832;-79
2023/12/06 03:40:06;;;;;;;0.70;0.70;;;20.20;55.70;;;;;;4988160;28;20808;-80
2023/12/06 03:42:35;;;;;;;0.50;0.50;;;20.20;55.80;;;;;;4991531;28;20545;-81
2023/12/06 03:45:04;;;;;;;0.80;0.60;;;20.20;55.60;;;;;;4991258;28;20476;-81
2023/12/06 03:47:32;;;;;;;0.60;0.40;;;20.10;55.60;;;;;;4988670;28;20462;-79
2023/12/06 03:50:00;;;;;;;0.73;0.73;;;20.10;55.80;;;;;;4990223;28;20468;-82
2023/12/06 03:52:30;;;;;;;0.50;0.50;;;20.10;55.60;;;;;;4991339;28;20469;-79
2023/12/06 03:54:58;;;;;;;1.83;0.60;;;20.10;55.60;;;;;;4989588;28;20950;-81
2023/12/06 03:57:27;;;;;;;0.80;0.60;;;20.10;55.60;;;;;;4987539;28;21053;-79
2023/12/06 03:59:56;;;;;;;0.40;0.40;;;20.10;55.50;;;;;;4985476;28;20478;-82
2023/12/06 04:02:24;;;;;;;0.63;0.63;;;20.10;55.70;;;;;;4991109;28;20450;-81
2023/12/06 04:04:53;;;;;;;0.60;0.60;;;20.10;55.80;;;;;;4991550;28;20602;-81
2023/12/06 04:07:21;;;;;;;0.80;0.70;;;20.10;55.90;;;;;;4987662;28;20926;-82
2023/12/06 04:09:51;;;;;;;0.70;0.70;;;20.10;55.80;;;;;;4990382;28;20478;-84
2023/12/06 04:12:19;;;;;;;0.50;0.50;;;20.10;55.80;;;;;;5006135;28;20463;-81
2023/12/06 04:14:47;;;;;;;0.63;0.63;;;20.00;55.80;;;;;;4991780;28;20476;-82
2023/12/06 04:17:15;;;;;;;0.73;0.73;;;20.00;55.90;;;;;;4991387;28;20451;-81
2023/12/06 04:19:44;;;;;;;0.60;0.60;;;20.00;55.90;;;;;;4991314;28;20516;-83
2023/12/06 04:22:12;;;;;;;0.40;0.40;;;20.00;55.90;;;;;;4991708;28;20469;-81
2023/12/06 04:24:40;;;;;;;0.60;0.60;;;20.00;55.80;;;;;;4997117;28;20466;-83
2023/12/06 04:27:10;;;;;;;0.67;0.67;;;20.00;55.80;;;;;;4988877;28;20453;-82
2023/12/06 04:29:38;;;;;;;0.80;0.80;;;20.00;55.90;;;;;;4992103;28;20802;-82
2023/12/06 04:32:07;;;;;;;0.97;0.73;;;20.00;55.90;;;;;;4986281;28;20830;-82
2023/12/06 04:34:47;;;;;;;0.73;0.60;;;20.00;55.90;;;;;;4992092;28;20458;-81
2023/12/06 04:37:15;;;;;;;0.50;0.50;;;20.00;56.00;;;;;;4991669;28;20450;-82
2023/12/06 04:39:43;;;;;;;0.70;0.50;;;20.00;55.70;;;;;;4989935;28;20491;-82
2023/12/06 04:42:14;;;;;;;0.60;0.60;;;20.00;55.80;;;;;;4988434;28;22156;-84
2023/12/06 04:44:42;;;;;;;0.50;0.50;;;20.00;56.00;;;;;;4991716;28;20508;-82
2023/12/06 04:47:10;;;;;;;0.53;0.53;;;20.00;56.00;;;;;;4983941;28;20881;-81
2023/12/06 04:49:39;;;;;;;0.40;0.40;;;20.00;56.00;;;;;;4991253;28;20515;-81
2023/12/06 04:52:07;;;;;;;0.57;0.57;;;19.90;56.10;;;;;;4993520;28;20858;-81
2023/12/06 04:54:35;;;;;;;0.50;0.50;;;19.90;56.00;;;;;;4991892;28;20458;-81
2023/12/06 04:57:04;;;;;;;0.50;0.50;;;19.90;55.80;;;;;;4992027;28;21360;-81
2023/12/06 04:59:33;;;;;;;0.40;0.40;;;19.90;56.10;;;;;;4990950;28;20474;-83
2023/12/06 05:02:03;;;;;;;0.73;0.60;;;19.90;56.00;;;;;;4988421;28;20466;-80
2023/12/06 05:04:31;;;;;;;3.10;0.70;;;19.90;55.90;;;;;;4982857;28;20490;-81
2023/12/06 05:06:59;;;;;;;0.63;0.63;;;19.90;56.10;;;;;;4988688;28;20988;-80
2023/12/06 05:09:28;;;;;;;0.80;0.67;;;20.00;56.10;;;;;;4987160;28;21143;-81
2023/12/06 05:11:56;;;;;;;1.50;0.80;;;20.00;56.10;;;;;;4987070;28;20450;-81
2023/12/06 05:14:24;;;;;;;1.33;0.70;;;20.00;55.80;;;;;;4988020;28;20493;-82
2023/12/06 05:16:54;;;;;;;0.57;0.57;;;20.10;55.70;;;;;;4984153;28;20458;-81
2023/12/06 05:19:22;;;;;;;0.90;0.73;;;20.10;55.70;;;;;;4986080;28;21264;-80
2023/12/06 05:21:53;;;;;;;0.70;0.70;;;20.20;55.70;;;;;;4987654;28;20489;-83
2023/12/06 05:24:21;;;;;;;1.13;0.77;;;20.20;55.70;;;;;;4990792;28;20462;-81
2023/12/06 05:26:49;;;;;;;0.70;0.70;;;20.30;55.60;;;;;;4988883;28;20458;-82
2023/12/06 05:29:18;;;;;;;0.60;0.60;;;20.30;55.50;;;;;;4988448;28;20470;-81
2023/12/06 05:31:46;;;;;;;0.70;0.70;;;20.40;55.40;;;;;;4985000;28;20462;-82
2023/12/06 05:34:16;;;;;;;0.53;0.50;;;20.40;55.20;;;;;;4990042;28;20487;-84
2023/12/06 05:36:44;;;;;;;0.97;0.90;;;20.50;55.40;;;;;;4990412;28;20471;-81
2023/12/06 05:39:12;;;;;;;1.10;0.83;;;20.50;55.30;;;;;;4989290;28;20467;-81
2023/12/06 05:41:41;;;;;;;0.87;0.80;;;20.60;55.30;;;;;;4984550;28;21168;-82
2023/12/06 05:44:09;;;;;;;0.60;0.50;;;20.60;55.20;;;;;;4986017;28;20784;-81
2023/12/06 05:46:37;;;;;;;1.73;0.80;;;20.70;55.20;;;;;;4994989;28;21237;-80
2023/12/06 05:49:05;;;;;;;1.03;0.90;;;20.70;55.20;;;;;;4987397;28;20973;-82
2023/12/06 05:51:35;;;;;;;0.70;0.70;;;20.80;55.20;;;;;;4993550;28;20459;-81
2023/12/06 05:54:04;;;;;;;0.80;0.80;;;20.90;55.20;;;;;;4987566;28;20532;-82
2023/12/06 05:56:32;;;;;;;0.60;0.60;;;20.90;55.00;;;;;;4981519;28;20462;-82
2023/12/06 05:59:00;;;;;;;0.90;0.70;;;21.00;55.10;;;;;;4988322;28;20486;-84
2023/12/06 06:01:29;;;;;;;1.13;0.80;;;21.00;55.10;;;;;;4985299;28;20471;-82
2023/12/06 06:04:00;;;;;;;0.90;0.80;;;21.10;55.10;;;;;;4988205;28;20491;-82
2023/12/06 06:06:35;;;;;;;2.93;0.73;;;21.20;54.90;;;;;;4986806;28;20464;-82
2023/12/06 06:09:03;;;;;;;0.87;0.70;;;21.20;54.90;;;;;;4981159;28;20481;-83
2023/12/06 06:11:31;;;;;;;0.93;0.80;;;21.30;54.80;;;;;;4983254;28;20489;-83
2023/12/06 06:14:00;;;;;;;2.20;1.10;;;21.30;54.80;;;;;;4985964;28;20479;-82
2023/12/06 06:16:29;;;;;;;1.10;1.00;;;21.30;54.50;;;;;;4984128;28;20456;-82
2023/12/06 06:18:57;;;;;;;0.60;0.60;;;21.30;54.60;;;;;;4986838;28;20508;-82
2023/12/06 06:21:25;;;;;;;1.50;1.20;;;21.30;54.80;;;;;;4991649;28;20476;-82
2023/12/06 06:23:55;;;;;;;1.83;0.90;;;21.40;54.50;;;;;;4986085;28;20470;-82
2023/12/06 06:26:24;;;;;;;1.30;0.83;;;21.30;54.70;;;;;;4983773;28;20468;-83
2023/12/06 06:28:52;;;;;;;2.20;0.80;;;21.40;54.80;;;;;;4985566;28;20452;-87
2023/12/06 06:31:21;;;;;;;1.50;0.73;;;21.30;54.60;;;;;;4979763;28;20461;-83
2023/12/06 06:33:49;;;;;;;3.03;1.17;;;21.30;54.90;;;;;;4987980;28;20538;-83
2023/12/06 06:36:18;;;;;;;5.77;1.10;;;21.30;54.80;;;;;;4990745;28;20502;-82
2023/12/06 06:38:46;;;;;;;1.10;0.70;;;21.30;54.80;;;;;;4992780;28;20488;-83
2023/12/06 06:41:16;;;;;;;2.23;1.20;;;21.30;54.80;;;;;;4991054;28;20547;-87
2023/12/06 06:43:44;;;;;;;1.00;0.90;;;21.30;54.90;;;;;;4996934;28;20461;-83
2023/12/06 06:46:12;;;;;;;1.83;1.30;;;21.30;54.80;;;;;;4991837;28;20455;-80
2023/12/06 06:48:40;;;;;;;3.43;0.90;;;21.30;55.10;;;;;;4991839;28;20524;-82
2023/12/06 06:51:09;;;;;;;4.07;1.60;;;21.30;55.20;;;;;;4993674;28;20467;-82
2023/12/06 06:53:39;;;;;;;1.80;1.70;;;21.40;55.40;;;;;;4993756;28;20948;-82
2023/12/06 06:56:08;;;;;;;2.00;1.37;;;21.40;55.20;;;;;;4986800;28;20456;-82
2023/12/06 06:58:41;;;;;;;4.17;1.80;;;21.40;55.70;;;;;;4990961;28;20464;-81
2023/12/06 07:01:09;;;;;;;5.47;1.80;;;21.30;55.80;;;;;;4991065;28;20444;-81
2023/12/06 07:03:38;;;;;;;2.93;1.67;;;21.40;55.80;;;;;;4988728;28;20492;-81
2023/12/06 07:06:07;;;;;;;3.43;2.50;;;21.40;55.90;;;;;;4996625;28;20474;-82
2023/12/06 07:08:35;;;;;;;4.97;1.70;;;21.40;55.80;;;;;;4991839;28;20464;-84
2023/12/06 07:11:04;;;;;;;3.80;1.50;;;21.40;55.50;;;;;;4991606;28;20523;-84
2023/12/06 07:13:33;;;;;;;6.13;2.00;;;21.40;55.80;;;;;;4993732;28;20460;-81
2023/12/06 07:16:02;;;;;;;6.90;1.83;;;21.40;55.50;;;;;;4994857;28;20480;-81
2023/12/06 07:18:32;;;;;;;4.47;2.00;;;21.40;55.20;;;;;;4994418;28;20543;-83
2023/12/06 07:21:00;;;;;;;2.03;1.73;;;21.30;55.20;;;;;;5003159;28;20559;-84
2023/12/06 07:23:29;;;;;;;4.00;1.77;;;21.30;55.80;;;;;;5000978;28;20454;-81
2023/12/06 07:25:58;;;;;;;3.90;1.50;;;21.30;55.70;;;;;;4999972;28;20523;-81
2023/12/06 07:28:26;;;;;;;4.70;1.87;;;21.40;55.80;;;;;;4993925;28;20474;-82
2023/12/06 07:30:56;;;;;;;1.60;1.50;;;21.40;55.40;;;;;;4999357;28;20458;-83
2023/12/06 07:33:26;;;;;;;4.23;1.77;;;21.40;55.60;;;;;;5000717;28;20522;-82
2023/12/06 07:35:55;;;;;;;2.97;1.17;;;21.40;55.90;;;;;;4998920;28;20452;-82
2023/12/06 07:38:25;;;;;;;2.90;1.40;;;21.40;55.90;;;;;;4990883;28;20563;-81
2023/12/06 07:40:53;;;;;;;2.67;1.90;;;21.40;55.90;;;;;;5002345;28;20470;-81
2023/12/06 07:43:22;;;;;;;2.00;1.53;;;21.50;55.90;;;;;;5004322;28;20464;-81
2023/12/06 07:45:51;;;;;;;1.87;1.40;;;21.50;55.90;;;;;;4992053;28;20460;-82
2023/12/06 07:48:19;;;;;;;1.63;1.53;;;21.50;55.60;;;;;;4995216;28;20452;-82
2023/12/06 07:50:50;;;;;;;2.83;1.47;;;21.50;55.30;;;;;;5000602;28;20476;-82
2023/12/06 07:53:18;;;;;;;1.50;1.30;;;21.50;55.70;;;;;;4998540;28;20467;-85
2023/12/06 07:55:46;;;;;;;4.50;1.50;;;21.50;55.80;;;;;;4994072;28;20465;-81
2023/12/06 07:58:16;;;;;;;6.00;1.63;;;21.50;56.40;;;;;;4990018;28;20491;-84
2023/12/06 08:00:45;;;;;;;2.03;1.50;;;21.50;56.50;;;;;;5003185;28;20479;-86
2023/12/06 08:03:13;;;;;;;2.93;1.70;;;21.50;56.80;;;;;;5001115;28;20486;-84
2023/12/06 08:05:42;;;;;;;4.40;2.07;;;21.50;56.90;;;;;;4997150;28;20439;-84
2023/12/06 08:08:13;;;;;;;2.97;1.43;;;21.50;56.90;;;;;;4999991;28;20471;-84
2023/12/06 08:10:42;;;;;;;3.07;1.37;;;21.50;56.80;;;;;;4989181;28;20556;-81
2023/12/06 08:13:11;;;;;;;3.43;1.33;;;21.50;56.90;;;;;;5000784;28;20563;-84
2023/12/06 08:15:39;;;;;;;3.70;1.30;;;21.50;56.80;;;;;;4989755;28;20480;-88
2023/12/06 08:18:08;;;;;;;3.33;1.20;;;21.50;56.80;;;;;;5000899;28;20507;-84
2023/12/06 08:20:36;;;;;;;2.70;1.30;;;21.50;56.80;;;;;;4998289;28;20483;-81
2023/12/06 08:23:04;;;;;;;5.50;1.47;;;21.50;56.90;;;;;;4997352;28;20460;-81
2023/12/06 08:25:34;;;;;;;2.57;1.27;;;21.50;56.70;;;;;;4999431;28;20471;-86
2023/12/06 08:28:02;;;;;;;2.37;1.20;;;21.50;56.70;;;;;;4991117;28;20544;-82
2023/12/06 08:30:31;;;;;;;1.73;1.63;;;21.50;56.60;;;;;;4995460;28;20499;-81
2023/12/06 08:32:59;;;;;;;2.40;1.23;;;21.60;56.70;;;;;;4997849;28;20481;-84
2023/12/06 08:35:28;;;;;;;5.03;1.63;;;21.60;56.50;;;;;;5000226;28;20452;-83
2023/12/06 08:37:56;;;;;;;3.10;1.10;;;21.60;56.40;;;;;;4993379;28;20821;-84
2023/12/06 08:40:26;;;;;;;2.00;1.20;;;21.60;56.20;;;;;;4989142;28;20580;-85
2023/12/06 08:42:56;;;;;;;2.23;1.40;;;21.60;56.10;;;;;;5001779;28;20440;-83
2023/12/06 08:45:24;;;;;;;3.23;1.50;;;21.60;56.30;;;;;;4998687;28;20448;-83
2023/12/06 08:47:53;;;;;;;1.90;1.20;;;21.60;56.40;;;;;;4998573;28;20448;-83
2023/12/06 08:50:21;;;;;;;1.80;1.30;;;21.70;56.30;;;;;;4997251;28;20558;-83
2023/12/06 08:52:50;;;;;;;3.23;1.93;;;21.70;56.20;;;;;;5000124;28;20456;-86
2023/12/06 08:55:18;;;;;;;1.90;0.90;;;21.80;56.10;;;;;;4997734;28;21221;-90
2023/12/06 08:57:46;;;;;;;2.50;1.80;;;21.80;56.00;;;;;;4998409;28;20486;-83
2023/12/06 09:00:17;;;;;;;6.30;1.63;;;21.90;55.90;;;;;;4994723;28;20477;-82
2023/12/06 09:02:45;;;;;;;2.57;1.13;;;21.90;55.90;;;;;;5004066;28;20499;-80
2023/12/06 09:05:13;;;;;;;1.43;1.13;;;21.90;55.80;;;;;;5001112;28;20462;-82
2023/12/06 09:07:42;;;;;;;1.97;1.20;;;21.90;55.80;;;;;;4991545;28;20464;-81
2023/12/06 09:10:11;;;;;;;2.17;1.60;;;21.90;55.80;;;;;;4996625;28;20460;-85
2023/12/06 09:12:40;;;;;;;2.23;1.17;;;21.90;55.60;;;;;;4999956;28;20971;-82
2023/12/06 09:15:09;;;;;;;3.43;1.63;;;21.90;55.70;;;;;;4995518;28;20451;-84
2023/12/06 09:17:39;;;;;;;1.80;1.10;;;21.90;55.40;;;;;;4999797;28;20972;-81
2023/12/06 09:20:09;;;;;;;2.57;1.80;;;21.80;55.20;;;;;;4998013;28;20460;-82
2023/12/06 09:22:38;;;;;;;1.53;1.33;;;21.80;55.40;;;;;;4998399;28;20488;-81
2023/12/06 09:25:07;;;;;;;1.60;1.50;;;21.80;55.30;;;;;;4996671;28;20457;-85
2023/12/06 09:27:35;;;;;;;2.50;1.23;;;21.80;55.40;;;;;;5000196;28;20647;-85
2023/12/06 09:30:04;;;;;;;2.07;1.20;;;21.80;55.60;;;;;;4996011;28;20478;-80
2023/12/06 09:32:33;;;;;;;4.13;1.50;;;21.80;55.60;;;;;;4993972;28;20504;-81
2023/12/06 09:35:02;;;;;;;2.50;1.30;;;21.80;55.70;;;;;;5005007;28;20457;-83
2023/12/06 09:37:31;;;;;;;2.17;1.27;;;21.80;55.70;;;;;;4993224;28;20967;-82
2023/12/06 09:39:59;;;;;;;2.80;1.43;;;21.80;55.80;;;;;;4993928;28;20468;-83
2023/12/06 09:42:29;;;;;;;2.10;1.30;;;21.80;55.90;;;;;;4995297;28;20483;-83
2023/12/06 09:44:58;;;;;;;1.40;1.20;;;21.90;55.90;;;;;;5003298;28;21329;-82
2023/12/06 09:47:29;;;;;;;1.63;1.30;;;21.90;55.80;;;;;;4996362;28;20464;-84
2023/12/06 09:49:59;;;;;;;2.93;1.30;;;22.00;55.70;;;;;;5001542;28;20452;-83
2023/12/06 09:52:29;;;;;;;1.90;1.37;;;22.00;55.60;;;;;;4991364;28;20929;-83
2023/12/06 09:54:59;;;;;;;1.00;0.87;;;22.00;55.30;;;;;;4999757;28;21158;-89
2023/12/06 09:57:28;;;;;;;1.77;1.43;;;22.00;55.40;;;;;;4996614;28;20510;-82
2023/12/06 09:59:56;;;;;;;0.90;0.90;;;22.00;55.40;;;;;;4997362;28;20498;-85
2023/12/06 10:02:24;;;;;;;2.40;1.07;;;22.10;55.70;;;;;;4997609;28;20826;-83
2023/12/06 10:04:58;;;;;;;2.00;1.13;;;22.10;55.60;;;;;;4994692;28;21080;-83
2023/12/06 10:07:34;;;;;;;1.10;0.90;;;22.10;55.50;;;;;;4994306;28;20607;-85
2023/12/06 10:10:02;;;;;;;1.60;1.30;;;22.20;55.40;;;;;;4997297;28;20463;-87
2023/12/06 10:12:31;;;;;;;1.50;1.40;;;22.10;55.20;;;;;;5002067;28;20925;-84
2023/12/06 10:15:00;;;;;;;1.60;1.20;;;22.10;55.10;;;;;;5003906;28;20930;-84
2023/12/06 10:17:28;;;;;;;1.83;1.23;;;22.10;55.10;;;;;;4999292;28;20971;-84
2023/12/06 10:19:57;;;;;;;1.30;1.20;;;22.10;55.00;;;;;;5003257;28;20532;-85
2023/12/06 10:22:29;;;;;;;1.30;1.20;;;22.10;54.70;;;;;;5004157;28;20479;-84
2023/12/06 10:25:00;;;;;;;1.90;1.63;;;22.00;54.80;;;;;;4997058;28;20451;-84
2023/12/06 10:27:30;;;;;;;1.00;0.90;;;22.00;54.60;;;;;;4996825;28;20563;-82
2023/12/06 10:29:59;;;;;;;1.80;1.33;;;22.00;55.20;;;;;;4990938;28;20452;-82
2023/12/06 10:32:29;;;;;;;2.10;1.57;;;22.00;55.10;;;;;;5002697;28;20457;-84
2023/12/06 10:35:00;;;;;;;2.53;1.70;;;21.90;55.20;;;;;;5001311;28;20507;-84
2023/12/06 10:37:29;;;;;;;2.20;1.30;;;21.90;55.30;;;;;;5006048;28;20460;-83
2023/12/06 10:40:09;;;;;;;1.97;1.10;;;21.90;55.40;;;;;;4999160;28;20459;-84
2023/12/06 10:42:40;;;;;;;1.60;1.50;;;21.90;55.40;;;;;;5000798;28;20484;-83
2023/12/06 10:45:11;;;;;;;2.30;1.63;;;21.90;55.50;;;;;;5002554;28;20453;-82
2023/12/06 10:47:41;;;;;;;1.90;1.47;;;21.80;55.20;;;;;;4999889;28;20460;-84
2023/12/06 10:50:12;;;;;;;1.60;1.37;;;21.80;55.30;;;;;;4999523;28;20451;-81
2023/12/06 10:52:41;;;;;;;1.57;1.10;;;21.80;55.30;;;;;;4998909;28;20544;-82
2023/12/06 10:55:12;;;;;;;1.50;1.40;;;21.80;55.10;;;;;;5004850;28;20497;-83
2023/12/06 10:57:42;;;;;;;1.27;1.17;;;21.80;55.50;;;;;;4999216;28;20822;-85
2023/12/06 11:00:12;;;;;;;2.00;1.77;;;21.90;55.20;;;;;;5004424;28;20795;-85
2023/12/06 11:02:41;;;;;;;2.00;1.57;;;21.90;55.00;;;;;;4997364;28;20978;-84
2023/12/06 11:05:13;;;;;;;1.67;1.40;;;21.90;55.30;;;;;;4998233;28;20453;-84
2023/12/06 11:08:04;;;;;;;1.67;1.10;;;21.90;55.10;;;;;;4998618;28;20492;-83
2023/12/06 11:10:45;;;;;;;1.40;1.30;;;21.90;55.40;;;;;;4994943;28;20472;-82
2023/12/06 11:13:28;;;;;;;1.50;1.40;;;22.00;55.40;;;;;;4995250;28;20460;-84
2023/12/06 11:16:05;;;;;;;1.30;1.20;;;22.00;55.10;;;;;;4997346;28;20460;-83
2023/12/06 11:18:43;;;;;;;1.70;1.20;;;22.00;55.20;;;;;;4982966;28;20465;-84
2023/12/06 11:21:12;;;;;;;1.50;1.40;;;22.00;55.30;;;;;;4996193;28;20532;-84
2023/12/06 11:23:42;;;;;;;1.40;1.30;;;22.00;55.10;;;;;;4981009;28;20457;-83
2023/12/06 11:26:12;;;;;;;1.13;1.03;;;21.90;55.10;;;;;;4985248;28;20835;-85
2023/12/06 11:28:42;;;;;;;0.80;0.80;;;21.90;55.00;;;;;;4992973;28;20471;-84
2023/12/06 11:31:13;;;;;;;1.40;1.30;;;21.90;55.00;;;;;;4988571;28;20469;-84
2023/12/06 11:33:41;;;;;;;1.53;1.43;;;21.90;55.00;;;;;;4982759;28;20466;-86
2023/12/06 11:36:16;;;;;;;0.80;0.80;;;21.90;55.00;;;;;;4979834;28;20460;-82
2023/12/06 11:38:45;;;;;;;0.97;0.97;;;21.80;55.00;;;;;;4975949;28;20449;-83
2023/12/06 11:41:16;;;;;;;6.53;1.07;;;21.90;55.10;;;;;;4982011;28;20440;-83
2023/12/06 11:43:48;;;;;;;1.73;1.10;;;21.80;55.20;;;;;;4993535;28;20469;-82
2023/12/06 11:46:17;;;;;;;1.87;1.00;;;21.80;55.20;;;;;;4990162;28;20457;-82
2023/12/06 11:48:48;;;;;;;3.17;1.07;;;21.80;55.30;;;;;;4986591;28;20948;-83
2023/12/06 11:51:21;;;;;;;1.37;1.00;;;21.80;55.30;;;;;;4990351;28;20465;-85
2023/12/06 11:53:52;;;;;;;1.23;1.00;;;21.80;55.30;;;;;;4990967;28;20460;-83
2023/12/06 11:56:25;;;;;;;0.87;0.87;;;21.80;55.30;;;;;;4992911;28;20461;-86
2023/12/06 11:58:57;;;;;;;1.17;1.03;;;21.80;55.30;;;;;;4991530;28;20451;-84
2023/12/06 12:01:26;;;;;;;1.60;1.50;;;21.80;55.40;;;;;;4991912;28;20453;-84
2023/12/06 12:03:55;;;;;;;1.27;1.17;;;21.80;55.40;;;;;;4986047;28;20904;-83
2023/12/06 12:06:30;;;;;;;3.53;1.30;;;21.80;55.50;;;;;;4989985;28;20802;-84
2023/12/06 12:08:59;;;;;;;1.10;1.07;;;21.80;55.50;;;;;;4999121;28;20800;-86
2023/12/06 12:11:32;;;;;;;1.73;1.00;;;21.70;55.40;;;;;;4990824;28;20960;-83
2023/12/06 12:14:00;;;;;;;2.80;0.97;;;21.70;55.50;;;;;;4994252;28;20453;-84
2023/12/06 12:16:28;;;;;;;1.23;1.00;;;21.70;55.60;;;;;;4997265;28;20464;-83
2023/12/06 12:19:00;;;;;;;1.17;1.07;;;21.70;55.60;;;;;;4997373;28;20460;-83
2023/12/06 12:21:29;;;;;;;1.30;1.20;;;21.70;55.70;;;;;;4991092;28;20456;-84
2023/12/06 12:24:00;;;;;;;1.07;1.00;;;21.60;55.80;;;;;;4991186;28;20855;-85
2023/12/06 12:26:30;;;;;;;1.40;1.30;;;21.60;55.80;;;;;;4987808;28;20878;-83
2023/12/06 12:28:59;;;;;;;2.50;1.07;;;21.60;55.90;;;;;;4992249;28;20445;-83
2023/12/06 12:31:32;;;;;;;0.97;0.97;;;21.60;55.90;;;;;;4991382;28;20453;-84
2023/12/06 12:34:00;;;;;;;2.60;1.10;;;21.60;55.90;;;;;;4991706;28;20441;-83
2023/12/06 12:36:28;;;;;;;1.87;1.00;;;21.60;55.90;;;;;;4990755;28;20489;-84
2023/12/06 12:38:59;;;;;;;3.13;1.33;;;21.60;56.00;;;;;;4982966;28;20822;-83
2023/12/06 12:41:30;;;;;;;1.17;1.07;;;21.60;56.00;;;;;;4984811;28;20988;-83
2023/12/06 12:44:00;;;;;;;2.17;0.97;;;21.60;56.30;;;;;;4997138;28;20586;-84
2023/12/06 12:46:29;;;;;;;1.60;1.27;;;21.60;56.60;;;;;;4991686;28;20490;-84
2023/12/06 12:48:58;;;;;;;1.27;1.17;;;21.70;56.80;;;;;;5000121;28;20464;-84
2023/12/06 12:51:27;;;;;;;2.43;0.90;;;21.70;56.80;;;;;;4999457;28;20449;-83
2023/12/06 12:53:58;;;;;;;1.57;0.73;;;21.70;56.80;;;;;;4995655;28;20457;-83
2023/12/06 12:56:26;;;;;;;1.50;1.10;;;21.80;56.80;;;;;;4996777;28;20465;-83
2023/12/06 12:58:56;;;;;;;1.30;1.20;;;21.80;56.70;;;;;;4993680;28;20512;-84